sensor_id;sensor_type;location;lat;lon;timestamp;temperature;humidity
21033;DHT22;10675;47.976;7.824;2023-07-22T00:02:11;15.90;99.90
21033;DHT22;10675;47.976;7.824;2023-07-22T00:04:36;15.80;99.90
21033;DHT22;10675;47.976;7.824;2023-07-22T00:07:03;15.80;99.90
21033;DHT22;10675;47.976;7.824;2023-07-22T00:09:29;15.80;99.90
21033;DHT22;10675;47.976;7.824;2023-07-22T00:11:54;15.70;99.90
21033;DHT22;10675;47.976;7.824;2023-07-22T00:14:20;15.70;99.90
21033;DHT22;10675;47.976;7.824;2023-07-22T00:16:45;15.60;99.90
21033;DHT22;10675;47.976;7.824;2023-07-22T00:19:11;15.60;99.90
21033;DHT22;10675;47.976;7.824;2023-07-22T00:21:36;15.60;99.90
21033;DHT22;10675;47.976;7.824;2023-07-22T00:24:02;15.50;99.90
21033;DHT22;10675;47.976;7.824;2023-07-22T00:26:27;15.50;99.90
21033;DHT22;10675;47.976;7.824;2023-07-22T00:28:53;15.50;99.90
21033;DHT22;10675;47.976;7.824;2023-07-22T00:31:18;15.40;99.90
21033;DHT22;10675;47.976;7.824;2023-07-22T00:33:44;15.30;99.90
21033;DHT22;10675;47.976;7.824;2023-07-22T00:36:09;15.30;99.90
21033;DHT22;10675;47.976;7.824;2023-07-22T00:38:35;15.30;99.90
21033;DHT22;10675;47.976;7.824;2023-07-22T00:41:00;15.30;99.90
21033;DHT22;10675;47.976;7.824;2023-07-22T00:43:30;15.30;99.90
21033;DHT22;10675;47.976;7.824;2023-07-22T00:45:55;15.40;99.90
21033;DHT22;10675;47.976;7.824;2023-07-22T00:48:21;15.30;99.90
21033;DHT22;10675;47.976;7.824;2023-07-22T00:50:47;15.30;99.90
21033;DHT22;10675;47.976;7.824;2023-07-22T00:53:13;15.20;99.90
21033;DHT22;10675;47.976;7.824;2023-07-22T00:55:39;15.10;99.90
21033;DHT22;10675;47.976;7.824;2023-07-22T00:58:06;15.10;99.90
21033;DHT22;10675;47.976;7.824;2023-07-22T01:00:32;15.20;99.90
21033;DHT22;10675;47.976;7.824;2023-07-22T01:02:58;15.20;99.90
21033;DHT22;10675;47.976;7.824;2023-07-22T01:05:25;15.20;99.90
21033;DHT22;10675;47.976;7.824;2023-07-22T01:07:52;14.90;99.90
21033;DHT22;10675;47.976;7.824;2023-07-22T01:10:18;15.00;99.90
21033;DHT22;10675;47.976;7.824;2023-07-22T01:12:44;15.00;99.90
21033;DHT22;10675;47.976;7.824;2023-07-22T01:15:10;15.00;99.90
21033;DHT22;10675;47.976;7.824;2023-07-22T01:17:39;14.90;99.90
21033;DHT22;10675;47.976;7.824;2023-07-22T01:20:06;14.90;99.90
21033;DHT22;10675;47.976;7.824;2023-07-22T01:22:33;14.90;99.90
21033;DHT22;10675;47.976;7.824;2023-07-22T01:24:59;14.80;99.90
21033;DHT22;10675;47.976;7.824;2023-07-22T01:27:25;14.90;99.90
21033;DHT22;10675;47.976;7.824;2023-07-22T01:29:51;14.80;99.90
21033;DHT22;10675;47.976;7.824;2023-07-22T01:32:17;14.90;99.90
21033;DHT22;10675;47.976;7.824;2023-07-22T01:34:43;14.80;99.90
21033;DHT22;10675;47.976;7.824;2023-07-22T01:37:09;14.90;99.90
21033;DHT22;10675;47.976;7.824;2023-07-22T01:39:37;14.90;99.90
21033;DHT22;10675;47.976;7.824;2023-07-22T01:42:03;14.90;99.90
21033;DHT22;10675;47.976;7.824;2023-07-22T01:44:30;14.80;99.90
21033;DHT22;10675;47.976;7.824;2023-07-22T01:46:55;14.80;99.90
21033;DHT22;10675;47.976;7.824;2023-07-22T01:49:21;14.80;99.90
21033;DHT22;10675;47.976;7.824;2023-07-22T01:51:49;14.70;99.90
21033;DHT22;10675;47.976;7.824;2023-07-22T01:54:15;14.70;99.90
21033;DHT22;10675;47.976;7.824;2023-07-22T01:56:40;14.70;99.90
21033;DHT22;10675;47.976;7.824;2023-07-22T01:59:06;14.70;99.90
21033;DHT22;10675;47.976;7.824;2023-07-22T02:01:32;14.70;99.90
21033;DHT22;10675;47.976;7.824;2023-07-22T02:03:58;14.70;99.90
21033;DHT22;10675;47.976;7.824;2023-07-22T02:06:23;14.70;99.90
21033;DHT22;10675;47.976;7.824;2023-07-22T02:08:49;14.80;99.90
21033;DHT22;10675;47.976;7.824;2023-07-22T02:11:15;14.90;99.90
21033;DHT22;10675;47.976;7.824;2023-07-22T02:13:41;14.90;99.90
21033;DHT22;10675;47.976;7.824;2023-07-22T02:16:07;14.90;99.90
21033;DHT22;10675;47.976;7.824;2023-07-22T02:18:32;15.00;99.90
21033;DHT22;10675;47.976;7.824;2023-07-22T02:20:58;14.90;99.90
21033;DHT22;10675;47.976;7.824;2023-07-22T02:23:24;14.90;99.90
21033;DHT22;10675;47.976;7.824;2023-07-22T02:25:54;14.80;99.90
21033;DHT22;10675;47.976;7.824;2023-07-22T02:28:20;14.90;99.90
21033;DHT22;10675;47.976;7.824;2023-07-22T02:30:51;14.90;99.90
21033;DHT22;10675;47.976;7.824;2023-07-22T02:33:20;14.90;99.90
21033;DHT22;10675;47.976;7.824;2023-07-22T02:35:47;14.90;99.90
21033;DHT22;10675;47.976;7.824;2023-07-22T02:38:13;14.90;99.90
21033;DHT22;10675;47.976;7.824;2023-07-22T02:40:39;14.90;99.90
21033;DHT22;10675;47.976;7.824;2023-07-22T02:43:05;14.90;99.90
21033;DHT22;10675;47.976;7.824;2023-07-22T02:45:32;14.90;99.90
21033;DHT22;10675;47.976;7.824;2023-07-22T02:47:58;14.90;99.90
21033;DHT22;10675;47.976;7.824;2023-07-22T02:50:23;14.90;99.90
21033;DHT22;10675;47.976;7.824;2023-07-22T02:52:49;14.70;99.90
21033;DHT22;10675;47.976;7.824;2023-07-22T02:55:16;14.80;99.90
21033;DHT22;10675;47.976;7.824;2023-07-22T02:57:44;14.90;99.90
21033;DHT22;10675;47.976;7.824;2023-07-22T03:00:12;14.90;99.90
21033;DHT22;10675;47.976;7.824;2023-07-22T03:02:39;14.90;99.90
21033;DHT22;10675;47.976;7.824;2023-07-22T03:05:05;14.80;99.90
21033;DHT22;10675;47.976;7.824;2023-07-22T03:07:37;14.80;99.90
21033;DHT22;10675;47.976;7.824;2023-07-22T03:10:04;14.90;99.90
21033;DHT22;10675;47.976;7.824;2023-07-22T03:12:29;14.90;99.90
21033;DHT22;10675;47.976;7.824;2023-07-22T03:14:55;14.80;99.90
21033;DHT22;10675;47.976;7.824;2023-07-22T03:17:20;14.80;99.90
21033;DHT22;10675;47.976;7.824;2023-07-22T03:19:46;14.80;99.90
21033;DHT22;10675;47.976;7.824;2023-07-22T03:22:15;14.90;99.90
21033;DHT22;10675;47.976;7.824;2023-07-22T03:24:41;14.80;99.90
21033;DHT22;10675;47.976;7.824;2023-07-22T03:27:07;14.80;99.90
21033;DHT22;10675;47.976;7.824;2023-07-22T03:29:33;14.80;99.90
21033;DHT22;10675;47.976;7.824;2023-07-22T03:31:58;14.80;99.90
21033;DHT22;10675;47.976;7.824;2023-07-22T03:34:28;14.80;99.90
21033;DHT22;10675;47.976;7.824;2023-07-22T03:36:53;14.80;99.90
21033;DHT22;10675;47.976;7.824;2023-07-22T03:39:19;14.80;99.90
21033;DHT22;10675;47.976;7.824;2023-07-22T03:41:45;14.70;99.90
21033;DHT22;10675;47.976;7.824;2023-07-22T03:44:11;14.70;99.90
21033;DHT22;10675;47.976;7.824;2023-07-22T03:46:37;14.70;99.90
21033;DHT22;10675;47.976;7.824;2023-07-22T03:49:03;14.70;99.90
21033;DHT22;10675;47.976;7.824;2023-07-22T03:51:28;14.80;99.90
21033;DHT22;10675;47.976;7.824;2023-07-22T03:53:54;14.70;99.90
21033;DHT22;10675;47.976;7.824;2023-07-22T03:56:20;14.60;99.90
21033;DHT22;10675;47.976;7.824;2023-07-22T03:58:46;14.60;99.90
21033;DHT22;10675;47.976;7.824;2023-07-22T04:01:12;14.50;99.90
21033;DHT22;10675;47.976;7.824;2023-07-22T04:03:38;14.50;99.90
21033;DHT22;10675;47.976;7.824;2023-07-22T04:06:03;14.50;99.90
21033;DHT22;10675;47.976;7.824;2023-07-22T04:08:29;14.50;99.90
21033;DHT22;10675;47.976;7.824;2023-07-22T04:10:55;14.60;99.90
21033;DHT22;10675;47.976;7.824;2023-07-22T04:13:22;14.70;99.90
21033;DHT22;10675;47.976;7.824;2023-07-22T04:15:48;14.60;99.90
21033;DHT22;10675;47.976;7.824;2023-07-22T04:18:15;14.50;99.90
21033;DHT22;10675;47.976;7.824;2023-07-22T04:20:41;14.60;99.90
21033;DHT22;10675;47.976;7.824;2023-07-22T04:23:07;14.60;99.90
21033;DHT22;10675;47.976;7.824;2023-07-22T04:25:32;14.60;99.90
21033;DHT22;10675;47.976;7.824;2023-07-22T04:27:58;14.60;99.90
21033;DHT22;10675;47.976;7.824;2023-07-22T04:30:23;14.40;99.90
21033;DHT22;10675;47.976;7.824;2023-07-22T04:32:50;14.50;99.90
21033;DHT22;10675;47.976;7.824;2023-07-22T04:35:16;14.60;99.90
21033;DHT22;10675;47.976;7.824;2023-07-22T04:37:44;14.60;99.90
21033;DHT22;10675;47.976;7.824;2023-07-22T04:40:13;14.60;99.90
21033;DHT22;10675;47.976;7.824;2023-07-22T04:42:44;14.60;99.90
21033;DHT22;10675;47.976;7.824;2023-07-22T04:45:10;14.70;99.90
21033;DHT22;10675;47.976;7.824;2023-07-22T04:47:37;14.70;99.90
21033;DHT22;10675;47.976;7.824;2023-07-22T04:50:03;14.70;99.90
21033;DHT22;10675;47.976;7.824;2023-07-22T04:52:29;14.80;99.90
21033;DHT22;10675;47.976;7.824;2023-07-22T04:54:55;14.80;99.90
21033;DHT22;10675;47.976;7.824;2023-07-22T04:57:21;14.90;99.90
21033;DHT22;10675;47.976;7.824;2023-07-22T04:59:47;15.00;99.90
21033;DHT22;10675;47.976;7.824;2023-07-22T05:02:12;15.10;99.90
21033;DHT22;10675;47.976;7.824;2023-07-22T05:04:38;15.20;99.90
21033;DHT22;10675;47.976;7.824;2023-07-22T05:07:04;15.10;99.90
21033;DHT22;10675;47.976;7.824;2023-07-22T05:09:29;15.20;99.90
21033;DHT22;10675;47.976;7.824;2023-07-22T05:11:55;15.40;99.90
21033;DHT22;10675;47.976;7.824;2023-07-22T05:14:20;15.50;99.90
21033;DHT22;10675;47.976;7.824;2023-07-22T05:16:46;15.60;99.90
21033;DHT22;10675;47.976;7.824;2023-07-22T05:19:11;15.60;99.90
21033;DHT22;10675;47.976;7.824;2023-07-22T05:21:37;15.80;99.90
21033;DHT22;10675;47.976;7.824;2023-07-22T05:24:03;15.90;99.90
21033;DHT22;10675;47.976;7.824;2023-07-22T05:26:28;15.80;99.90
21033;DHT22;10675;47.976;7.824;2023-07-22T05:28:54;15.80;99.90
21033;DHT22;10675;47.976;7.824;2023-07-22T05:31:19;16.00;99.90
21033;DHT22;10675;47.976;7.824;2023-07-22T05:33:45;16.10;99.90
21033;DHT22;10675;47.976;7.824;2023-07-22T05:36:10;16.10;99.90
21033;DHT22;10675;47.976;7.824;2023-07-22T05:38:36;16.20;99.90
21033;DHT22;10675;47.976;7.824;2023-07-22T05:41:01;16.30;99.90
21033;DHT22;10675;47.976;7.824;2023-07-22T05:43:27;16.30;99.90
21033;DHT22;10675;47.976;7.824;2023-07-22T05:45:52;16.40;99.90
21033;DHT22;10675;47.976;7.824;2023-07-22T05:48:18;16.30;99.90
21033;DHT22;10675;47.976;7.824;2023-07-22T05:50:43;16.40;99.90
21033;DHT22;10675;47.976;7.824;2023-07-22T05:53:09;16.40;99.90
21033;DHT22;10675;47.976;7.824;2023-07-22T05:55:35;16.50;99.90
21033;DHT22;10675;47.976;7.824;2023-07-22T05:58:02;16.60;99.90
21033;DHT22;10675;47.976;7.824;2023-07-22T06:00:32;17.00;99.90
21033;DHT22;10675;47.976;7.824;2023-07-22T06:02:58;17.20;99.90
21033;DHT22;10675;47.976;7.824;2023-07-22T06:05:23;17.30;99.90
21033;DHT22;10675;47.976;7.824;2023-07-22T06:07:49;17.50;99.90
21033;DHT22;10675;47.976;7.824;2023-07-22T06:10:14;17.40;99.90
21033;DHT22;10675;47.976;7.824;2023-07-22T06:12:40;17.50;99.90
21033;DHT22;10675;47.976;7.824;2023-07-22T06:15:07;17.60;99.90
21033;DHT22;10675;47.976;7.824;2023-07-22T06:17:33;17.80;99.90
21033;DHT22;10675;47.976;7.824;2023-07-22T06:19:58;17.90;99.90
21033;DHT22;10675;47.976;7.824;2023-07-22T06:22:24;18.00;99.90
21033;DHT22;10675;47.976;7.824;2023-07-22T06:24:49;18.00;99.90
21033;DHT22;10675;47.976;7.824;2023-07-22T06:27:15;18.10;99.10
21033;DHT22;10675;47.976;7.824;2023-07-22T06:29:40;18.30;98.90
21033;DHT22;10675;47.976;7.824;2023-07-22T06:32:06;18.50;98.00
21033;DHT22;10675;47.976;7.824;2023-07-22T06:34:32;18.60;96.90
21033;DHT22;10675;47.976;7.824;2023-07-22T06:36:57;18.60;97.90
21033;DHT22;10675;47.976;7.824;2023-07-22T06:39:23;18.80;97.00
21033;DHT22;10675;47.976;7.824;2023-07-22T06:41:48;19.00;97.20
21033;DHT22;10675;47.976;7.824;2023-07-22T06:44:14;19.20;99.10
21033;DHT22;10675;47.976;7.824;2023-07-22T06:46:40;19.10;99.40
21033;DHT22;10675;47.976;7.824;2023-07-22T06:49:06;19.30;98.50
21033;DHT22;10675;47.976;7.824;2023-07-22T06:51:31;19.40;96.30
21033;DHT22;10675;47.976;7.824;2023-07-22T06:53:57;19.50;96.80
21033;DHT22;10675;47.976;7.824;2023-07-22T06:56:22;19.60;97.70
21033;DHT22;10675;47.976;7.824;2023-07-22T06:58:48;19.90;94.60
21033;DHT22;10675;47.976;7.824;2023-07-22T07:01:13;19.70;94.80
21033;DHT22;10675;47.976;7.824;2023-07-22T07:03:39;19.80;95.80
21033;DHT22;10675;47.976;7.824;2023-07-22T07:06:04;20.20;94.30
21033;DHT22;10675;47.976;7.824;2023-07-22T07:08:30;20.30;93.60
21033;DHT22;10675;47.976;7.824;2023-07-22T07:10:55;20.60;92.40
21033;DHT22;10675;47.976;7.824;2023-07-22T07:13:21;20.80;91.30
21033;DHT22;10675;47.976;7.824;2023-07-22T07:15:48;20.90;91.40
21033;DHT22;10675;47.976;7.824;2023-07-22T07:18:14;20.60;91.00
21033;DHT22;10675;47.976;7.824;2023-07-22T07:20:40;20.70;91.20
21033;DHT22;10675;47.976;7.824;2023-07-22T07:23:05;20.90;91.20
21033;DHT22;10675;47.976;7.824;2023-07-22T07:25:31;21.10;91.20
21033;DHT22;10675;47.976;7.824;2023-07-22T07:27:57;21.00;91.00
21033;DHT22;10675;47.976;7.824;2023-07-22T07:30:22;21.30;91.50
21033;DHT22;10675;47.976;7.824;2023-07-22T07:32:48;21.30;91.90
21033;DHT22;10675;47.976;7.824;2023-07-22T07:35:13;21.40;91.10
21033;DHT22;10675;47.976;7.824;2023-07-22T07:37:39;21.50;90.60
21033;DHT22;10675;47.976;7.824;2023-07-22T07:40:05;21.70;90.80
21033;DHT22;10675;47.976;7.824;2023-07-22T07:42:30;21.70;91.30
21033;DHT22;10675;47.976;7.824;2023-07-22T07:44:56;21.80;91.20
21033;DHT22;10675;47.976;7.824;2023-07-22T07:47:22;21.90;90.90
21033;DHT22;10675;47.976;7.824;2023-07-22T07:49:47;22.00;91.00
21033;DHT22;10675;47.976;7.824;2023-07-22T07:52:14;21.90;90.50
21033;DHT22;10675;47.976;7.824;2023-07-22T07:54:39;21.90;90.60
21033;DHT22;10675;47.976;7.824;2023-07-22T07:57:05;22.00;90.70
21033;DHT22;10675;47.976;7.824;2023-07-22T07:59:31;22.20;90.40
21033;DHT22;10675;47.976;7.824;2023-07-22T08:01:57;22.20;90.40
21033;DHT22;10675;47.976;7.824;2023-07-22T08:04:22;22.40;90.20
21033;DHT22;10675;47.976;7.824;2023-07-22T08:06:49;22.30;90.20
21033;DHT22;10675;47.976;7.824;2023-07-22T08:09:14;22.50;89.60
21033;DHT22;10675;47.976;7.824;2023-07-22T08:11:45;22.50;90.10
21033;DHT22;10675;47.976;7.824;2023-07-22T08:14:10;22.60;90.00
21033;DHT22;10675;47.976;7.824;2023-07-22T08:16:36;22.40;85.70
21033;DHT22;10675;47.976;7.824;2023-07-22T08:19:01;22.40;84.60
21033;DHT22;10675;47.976;7.824;2023-07-22T08:21:27;22.40;85.90
21033;DHT22;10675;47.976;7.824;2023-07-22T08:23:52;22.20;84.70
21033;DHT22;10675;47.976;7.824;2023-07-22T08:26:18;22.50;84.60
21033;DHT22;10675;47.976;7.824;2023-07-22T08:28:46;22.60;82.50
21033;DHT22;10675;47.976;7.824;2023-07-22T08:31:12;22.60;83.00
21033;DHT22;10675;47.976;7.824;2023-07-22T08:33:38;22.80;81.80
21033;DHT22;10675;47.976;7.824;2023-07-22T08:36:03;22.80;80.20
21033;DHT22;10675;47.976;7.824;2023-07-22T08:38:30;22.80;78.30
21033;DHT22;10675;47.976;7.824;2023-07-22T08:40:56;22.80;79.10
21033;DHT22;10675;47.976;7.824;2023-07-22T08:43:22;23.00;79.40
21033;DHT22;10675;47.976;7.824;2023-07-22T08:45:49;23.20;78.30
21033;DHT22;10675;47.976;7.824;2023-07-22T08:48:17;23.10;76.70
21033;DHT22;10675;47.976;7.824;2023-07-22T08:50:53;23.20;77.50
21033;DHT22;10675;47.976;7.824;2023-07-22T08:53:20;23.20;74.30
21033;DHT22;10675;47.976;7.824;2023-07-22T08:55:46;23.10;75.00
21033;DHT22;10675;47.976;7.824;2023-07-22T08:58:13;22.90;75.00
21033;DHT22;10675;47.976;7.824;2023-07-22T09:00:40;22.90;74.00
21033;DHT22;10675;47.976;7.824;2023-07-22T09:03:06;23.10;74.80
21033;DHT22;10675;47.976;7.824;2023-07-22T09:05:32;23.00;72.60
21033;DHT22;10675;47.976;7.824;2023-07-22T09:07:59;22.80;70.40
21033;DHT22;10675;47.976;7.824;2023-07-22T09:10:27;22.90;71.70
21033;DHT22;10675;47.976;7.824;2023-07-22T09:12:53;23.20;71.50
21033;DHT22;10675;47.976;7.824;2023-07-22T09:15:20;23.10;70.40
21033;DHT22;10675;47.976;7.824;2023-07-22T09:17:47;23.30;71.30
21033;DHT22;10675;47.976;7.824;2023-07-22T09:20:13;23.50;69.30
21033;DHT22;10675;47.976;7.824;2023-07-22T09:22:47;23.40;67.60
21033;DHT22;10675;47.976;7.824;2023-07-22T09:27:49;23.60;70.20
21033;DHT22;10675;47.976;7.824;2023-07-22T09:30:25;23.70;68.80
21033;DHT22;10675;47.976;7.824;2023-07-22T09:32:59;23.10;66.80
21033;DHT22;10675;47.976;7.824;2023-07-22T09:35:30;23.00;68.00
21033;DHT22;10675;47.976;7.824;2023-07-22T09:37:56;23.40;66.70
21033;DHT22;10675;47.976;7.824;2023-07-22T09:40:24;23.60;66.60
21033;DHT22;10675;47.976;7.824;2023-07-22T09:42:57;23.30;66.90
21033;DHT22;10675;47.976;7.824;2023-07-22T09:45:30;23.30;62.70
21033;DHT22;10675;47.976;7.824;2023-07-22T09:47:57;23.10;65.50
21033;DHT22;10675;47.976;7.824;2023-07-22T09:50:24;23.30;67.50
21033;DHT22;10675;47.976;7.824;2023-07-22T09:52:52;23.60;67.50
21033;DHT22;10675;47.976;7.824;2023-07-22T09:55:23;24.00;62.20
21033;DHT22;10675;47.976;7.824;2023-07-22T09:57:57;24.30;61.30
21033;DHT22;10675;47.976;7.824;2023-07-22T10:00:25;24.40;61.00
21033;DHT22;10675;47.976;7.824;2023-07-22T10:02:52;24.60;62.40
21033;DHT22;10675;47.976;7.824;2023-07-22T10:05:18;24.20;61.80
21033;DHT22;10675;47.976;7.824;2023-07-22T10:07:55;23.90;62.30
21033;DHT22;10675;47.976;7.824;2023-07-22T10:10:28;23.90;63.00
21033;DHT22;10675;47.976;7.824;2023-07-22T10:12:55;24.20;60.60
21033;DHT22;10675;47.976;7.824;2023-07-22T10:15:25;24.70;61.00
21033;DHT22;10675;47.976;7.824;2023-07-22T10:17:51;24.40;58.50
21033;DHT22;10675;47.976;7.824;2023-07-22T10:20:16;24.10;59.70
21033;DHT22;10675;47.976;7.824;2023-07-22T10:22:46;23.80;60.80
21033;DHT22;10675;47.976;7.824;2023-07-22T10:25:15;23.60;61.30
21033;DHT22;10675;47.976;7.824;2023-07-22T10:27:41;23.70;59.00
21033;DHT22;10675;47.976;7.824;2023-07-22T10:30:12;23.80;60.50
21033;DHT22;10675;47.976;7.824;2023-07-22T10:32:43;23.70;58.30
21033;DHT22;10675;47.976;7.824;2023-07-22T10:35:12;23.90;58.50
21033;DHT22;10675;47.976;7.824;2023-07-22T10:37:39;24.20;58.00
21033;DHT22;10675;47.976;7.824;2023-07-22T10:40:52;24.10;58.30
21033;DHT22;10675;47.976;7.824;2023-07-22T10:43:24;23.90;58.40
21033;DHT22;10675;47.976;7.824;2023-07-22T10:45:52;23.60;58.00
21033;DHT22;10675;47.976;7.824;2023-07-22T10:48:18;23.70;57.60
21033;DHT22;10675;47.976;7.824;2023-07-22T10:50:46;24.10;57.50
21033;DHT22;10675;47.976;7.824;2023-07-22T10:58:55;23.60;58.30
21033;DHT22;10675;47.976;7.824;2023-07-22T11:12:13;24.90;54.80
21033;DHT22;10675;47.976;7.824;2023-07-22T11:14:50;24.80;53.10
21033;DHT22;10675;47.976;7.824;2023-07-22T11:17:17;25.10;52.70
21033;DHT22;10675;47.976;7.824;2023-07-22T11:19:43;25.00;52.60
21033;DHT22;10675;47.976;7.824;2023-07-22T11:22:09;25.40;52.10
21033;DHT22;10675;47.976;7.824;2023-07-22T11:24:36;25.50;51.30
21033;DHT22;10675;47.976;7.824;2023-07-22T11:27:06;25.40;50.60
21033;DHT22;10675;47.976;7.824;2023-07-22T11:29:34;25.60;52.10
21033;DHT22;10675;47.976;7.824;2023-07-22T11:32:00;25.30;51.60
21033;DHT22;10675;47.976;7.824;2023-07-22T11:34:26;25.10;51.80
21033;DHT22;10675;47.976;7.824;2023-07-22T11:36:53;25.20;51.30
21033;DHT22;10675;47.976;7.824;2023-07-22T11:39:24;25.20;51.80
21033;DHT22;10675;47.976;7.824;2023-07-22T11:41:50;25.40;52.80
21033;DHT22;10675;47.976;7.824;2023-07-22T11:44:18;25.70;52.40
21033;DHT22;10675;47.976;7.824;2023-07-22T11:46:56;25.60;51.70
21033;DHT22;10675;47.976;7.824;2023-07-22T11:54:28;26.00;51.40
21033;DHT22;10675;47.976;7.824;2023-07-22T11:56:55;26.00;50.30
21033;DHT22;10675;47.976;7.824;2023-07-22T11:59:37;25.90;50.40
21033;DHT22;10675;47.976;7.824;2023-07-22T12:02:04;26.20;51.10
21033;DHT22;10675;47.976;7.824;2023-07-22T12:04:31;26.20;50.80
21033;DHT22;10675;47.976;7.824;2023-07-22T12:06:57;26.10;51.00
21033;DHT22;10675;47.976;7.824;2023-07-22T12:09:23;25.90;51.50
21033;DHT22;10675;47.976;7.824;2023-07-22T12:11:58;26.10;49.70
21033;DHT22;10675;47.976;7.824;2023-07-22T12:14:24;26.00;49.80
21033;DHT22;10675;47.976;7.824;2023-07-22T12:16:55;26.30;49.10
21033;DHT22;10675;47.976;7.824;2023-07-22T12:19:23;26.30;48.00
21033;DHT22;10675;47.976;7.824;2023-07-22T12:21:48;26.50;49.10
21033;DHT22;10675;47.976;7.824;2023-07-22T12:24:14;26.70;49.00
21033;DHT22;10675;47.976;7.824;2023-07-22T12:26:40;26.30;47.90
21033;DHT22;10675;47.976;7.824;2023-07-22T12:29:07;26.20;47.70
21033;DHT22;10675;47.976;7.824;2023-07-22T12:31:33;26.60;49.70
21033;DHT22;10675;47.976;7.824;2023-07-22T12:33:59;26.70;46.80
21033;DHT22;10675;47.976;7.824;2023-07-22T12:36:24;26.90;49.00
21033;DHT22;10675;47.976;7.824;2023-07-22T12:38:50;26.90;47.80
21033;DHT22;10675;47.976;7.824;2023-07-22T12:41:16;27.00;47.30
21033;DHT22;10675;47.976;7.824;2023-07-22T12:43:41;27.20;47.60
21033;DHT22;10675;47.976;7.824;2023-07-22T12:46:07;27.20;46.50
21033;DHT22;10675;47.976;7.824;2023-07-22T12:48:32;27.00;45.80
21033;DHT22;10675;47.976;7.824;2023-07-22T12:50:58;27.10;46.60
21033;DHT22;10675;47.976;7.824;2023-07-22T12:53:24;27.00;45.20
21033;DHT22;10675;47.976;7.824;2023-07-22T12:55:50;27.30;46.70
21033;DHT22;10675;47.976;7.824;2023-07-22T12:58:15;26.80;46.90
21033;DHT22;10675;47.976;7.824;2023-07-22T13:00:41;26.50;46.90
21033;DHT22;10675;47.976;7.824;2023-07-22T13:03:07;26.90;48.20
21033;DHT22;10675;47.976;7.824;2023-07-22T13:05:32;27.30;46.50
21033;DHT22;10675;47.976;7.824;2023-07-22T13:07:58;27.50;45.00
21033;DHT22;10675;47.976;7.824;2023-07-22T13:10:27;27.10;46.40
21033;DHT22;10675;47.976;7.824;2023-07-22T13:12:54;26.90;46.70
21033;DHT22;10675;47.976;7.824;2023-07-22T13:15:19;27.10;45.60
21033;DHT22;10675;47.976;7.824;2023-07-22T13:17:45;27.30;45.50
21033;DHT22;10675;47.976;7.824;2023-07-22T13:20:11;27.70;45.60
21033;DHT22;10675;47.976;7.824;2023-07-22T13:22:37;27.60;44.80
21033;DHT22;10675;47.976;7.824;2023-07-22T13:25:03;27.00;45.30
21033;DHT22;10675;47.976;7.824;2023-07-22T13:27:29;27.50;45.20
21033;DHT22;10675;47.976;7.824;2023-07-22T13:30:05;27.80;43.90
21033;DHT22;10675;47.976;7.824;2023-07-22T13:32:31;28.20;43.20
21033;DHT22;10675;47.976;7.824;2023-07-22T13:34:56;28.50;42.00
21033;DHT22;10675;47.976;7.824;2023-07-22T13:37:22;28.40;42.30
21033;DHT22;10675;47.976;7.824;2023-07-22T13:39:47;29.00;42.80
21033;DHT22;10675;47.976;7.824;2023-07-22T13:42:13;29.40;42.50
21033;DHT22;10675;47.976;7.824;2023-07-22T13:44:38;29.20;41.00
21033;DHT22;10675;47.976;7.824;2023-07-22T13:47:04;28.50;42.30
21033;DHT22;10675;47.976;7.824;2023-07-22T13:49:29;28.40;43.30
21033;DHT22;10675;47.976;7.824;2023-07-22T13:51:55;29.00;41.10
21033;DHT22;10675;47.976;7.824;2023-07-22T13:54:20;28.80;39.40
21033;DHT22;10675;47.976;7.824;2023-07-22T13:56:46;29.10;41.00
21033;DHT22;10675;47.976;7.824;2023-07-22T13:59:14;29.30;39.70
21033;DHT22;10675;47.976;7.824;2023-07-22T14:01:40;28.90;38.90
21033;DHT22;10675;47.976;7.824;2023-07-22T14:04:05;29.00;39.40
21033;DHT22;10675;47.976;7.824;2023-07-22T14:06:31;29.00;38.30
21033;DHT22;10675;47.976;7.824;2023-07-22T14:08:57;28.30;39.70
21033;DHT22;10675;47.976;7.824;2023-07-22T14:11:23;28.60;40.20
21033;DHT22;10675;47.976;7.824;2023-07-22T14:13:49;28.80;40.70
21033;DHT22;10675;47.976;7.824;2023-07-22T14:16:16;28.40;41.50
21033;DHT22;10675;47.976;7.824;2023-07-22T14:18:41;27.90;41.00
21033;DHT22;10675;47.976;7.824;2023-07-22T14:21:07;27.80;42.00
21033;DHT22;10675;47.976;7.824;2023-07-22T14:23:33;27.80;42.00
21033;DHT22;10675;47.976;7.824;2023-07-22T14:25:58;27.50;41.60
21033;DHT22;10675;47.976;7.824;2023-07-22T14:28:24;27.30;41.40
21033;DHT22;10675;47.976;7.824;2023-07-22T14:30:49;27.10;42.10
21033;DHT22;10675;47.976;7.824;2023-07-22T14:33:15;27.20;42.70
21033;DHT22;10675;47.976;7.824;2023-07-22T14:35:40;27.30;41.00
21033;DHT22;10675;47.976;7.824;2023-07-22T14:38:06;27.20;41.00
21033;DHT22;10675;47.976;7.824;2023-07-22T14:40:31;26.80;41.50
21033;DHT22;10675;47.976;7.824;2023-07-22T14:42:57;26.70;42.00
21033;DHT22;10675;47.976;7.824;2023-07-22T14:45:23;26.60;43.00
21033;DHT22;10675;47.976;7.824;2023-07-22T14:47:48;26.60;43.30
21033;DHT22;10675;47.976;7.824;2023-07-22T14:50:14;26.40;44.10
21033;DHT22;10675;47.976;7.824;2023-07-22T14:52:40;26.50;44.00
21033;DHT22;10675;47.976;7.824;2023-07-22T14:55:05;26.50;42.80
21033;DHT22;10675;47.976;7.824;2023-07-22T14:57:31;26.60;41.30
21033;DHT22;10675;47.976;7.824;2023-07-22T14:59:57;26.70;41.30
21033;DHT22;10675;47.976;7.824;2023-07-22T15:02:22;26.80;41.40
21033;DHT22;10675;47.976;7.824;2023-07-22T15:04:48;26.80;41.10
21033;DHT22;10675;47.976;7.824;2023-07-22T15:07:14;26.80;40.70
21033;DHT22;10675;47.976;7.824;2023-07-22T15:09:40;26.70;41.60
21033;DHT22;10675;47.976;7.824;2023-07-22T15:12:05;26.80;41.70
21033;DHT22;10675;47.976;7.824;2023-07-22T15:14:32;26.80;41.90
21033;DHT22;10675;47.976;7.824;2023-07-22T15:16:58;27.00;42.10
21033;DHT22;10675;47.976;7.824;2023-07-22T15:19:24;27.00;42.10
21033;DHT22;10675;47.976;7.824;2023-07-22T15:21:49;26.80;41.40
21033;DHT22;10675;47.976;7.824;2023-07-22T15:24:15;26.50;42.00
21033;DHT22;10675;47.976;7.824;2023-07-22T15:26:40;26.50;42.50
21033;DHT22;10675;47.976;7.824;2023-07-22T15:29:07;26.50;42.40
21033;DHT22;10675;47.976;7.824;2023-07-22T15:31:32;26.70;43.10
21033;DHT22;10675;47.976;7.824;2023-07-22T15:33:58;26.60;42.50
21033;DHT22;10675;47.976;7.824;2023-07-22T15:36:24;26.60;42.40
21033;DHT22;10675;47.976;7.824;2023-07-22T15:38:49;26.50;41.00
21033;DHT22;10675;47.976;7.824;2023-07-22T15:41:15;26.40;40.50
21033;DHT22;10675;47.976;7.824;2023-07-22T15:43:41;26.40;40.20
21033;DHT22;10675;47.976;7.824;2023-07-22T15:46:06;26.40;41.40
21033;DHT22;10675;47.976;7.824;2023-07-22T15:48:32;26.40;43.10
21033;DHT22;10675;47.976;7.824;2023-07-22T15:50:57;26.30;43.30